tititudorancea.com
Station Historical Data
Daily Summary for March 16, 2018 Units:  Metric    English   Both
« Previous Day
Next Day »
Daily Weekly Monthly Yearly Custom
  High: Low: Average:
Temperature: -17.8 °C 8.4 °C 17.2 °C
Dew Point: -17.8 °C 4.2 °C 7.9 °C
Humidity: Humidity % 29 % 60 %
Wind Speed: 0 km/h 0 km/h 5 km/h
Wind Gust: 0 km/h - -
Wind:- - WNW
Pressure: 0 hPa 1010.4 hPa -
Precipitation: 0 mm    
Historical Graphs
 
 
Ararat weather Find more about Weather in Ararat, AU


 



 


Tabular Data for March 16, 2018
Time Temperature Dew Point Pressure Wind Wind Speed Wind Gust Humidity Rainfall Rate (Hourly)
-17.8 °C -17.8 °C 0 hPa Calm     Humidity % 0 mm
00:00 12.7 °C 9.8 °C 1016.1 hPa South 8.2 km/h 14.8 km/h 83 % 0 mm
00:05 12.6 °C 10 °C 1016.1 hPa North 8.4 km/h 11.1 km/h 84 % 0 mm
00:10 12.6 °C 9.9 °C 1016.1 hPa North 4.3 km/h 9.3 km/h 84 % 0 mm
00:15 12.4 °C 9.8 °C 1016.1 hPa South 6 km/h 9.3 km/h 84 % 0 mm
00:20 12.4 °C 9.8 °C 1016.1 hPa North 6.9 km/h 9.7 km/h 84 % 0 mm
00:25 12.3 °C 9.9 °C 1016.1 hPa North 4.7 km/h 9.3 km/h 85 % 0 mm
00:30 12.3 °C 9.8 °C 1015.8 hPa North 3.9 km/h 9.3 km/h 85 % 0 mm
00:35 12.2 °C 9.8 °C 1015.8 hPa South 4.2 km/h 7.4 km/h 85 % 0 mm
00:40 12.1 °C 9.8 °C 1015.8 hPa South 7.6 km/h 8 km/h 86 % 0 mm
00:45 12.1 °C 9.8 °C 1015.8 hPa North 7.1 km/h 11.3 km/h 86 % 0 mm
00:50 12.1 °C 9.8 °C 1015.8 hPa South 7.2 km/h 14.8 km/h 86 % 0 mm
00:55 12 °C 9.9 °C 1015.8 hPa South 6.8 km/h 13 km/h 87 % 0 mm
01:00 11.9 °C 9.8 °C 1015.8 hPa South 6.8 km/h 11.1 km/h 87 % 0 mm
01:05 11.9 °C 9.8 °C 1015.8 hPa South 7.6 km/h 9.3 km/h 87 % 0 mm
01:10 11.8 °C 9.7 °C 1015.5 hPa North 6.3 km/h 11.1 km/h 87 % 0 mm
01:15 11.7 °C 9.8 °C 1015.5 hPa North 6.9 km/h 11.1 km/h 88 % 0 mm
01:20 11.7 °C 9.7 °C 1015.5 hPa South 7.7 km/h 13 km/h 88 % 0 mm
01:25 11.6 °C 9.7 °C 1015.5 hPa North 6.4 km/h 9.7 km/h 88 % 0 mm
01:30 11.6 °C 9.7 °C 1015.5 hPa South 6.9 km/h 11.1 km/h 88 % 0 mm
01:35 11.5 °C 9.7 °C 1015.5 hPa South 7.9 km/h 11.1 km/h 89 % 0 mm
01:40 11.4 °C 9.7 °C 1015.5 hPa North 6.8 km/h 8 km/h 89 % 0 mm
01:45 11.4 °C 9.7 °C 1015.1 hPa North 5.8 km/h 8 km/h 89 % 0 mm
01:50 11.3 °C 9.6 °C 1015.1 hPa North 6.1 km/h 9.3 km/h 89 % 0 mm
01:55 11.3 °C 9.8 °C 1015.1 hPa North 3.7 km/h 11.1 km/h 90 % 0 mm
02:00 11.3 °C 9.7 °C 1015.1 hPa South 4.2 km/h 5.6 km/h 90 % 0 mm
02:05 11.2 °C 9.7 °C 1015.1 hPa North 4.8 km/h 5.6 km/h 90 % 0 mm
02:10 11.2 °C 9.7 °C 1015.1 hPa South 9.2 km/h 13 km/h 90 % 0 mm
02:15 11.2 °C 9.7 °C 1014.8 hPa South 5.6 km/h 9.3 km/h 90 % 0 mm
02:20 11.2 °C 9.6 °C 1014.8 hPa North 5.5 km/h 5.6 km/h 90 % 0 mm
02:25 11.1 °C 9.6 °C 1014.8 hPa North 4.8 km/h 5.6 km/h 90 % 0 mm
02:30 11.1 °C 9.7 °C 1015.1 hPa South 8 km/h 8 km/h 91 % 0 mm
02:35 11.1 °C 9.7 °C 1015.1 hPa South 7.2 km/h 13 km/h 91 % 0 mm
02:40 11.1 °C 9.7 °C 1014.8 hPa South 6.6 km/h 11.1 km/h 91 % 0 mm
02:45 11.2 °C 9.8 °C 1014.8 hPa South 4.3 km/h 5.6 km/h 91 % 0 mm
02:50 11.2 °C 9.8 °C 1014.8 hPa North 4 km/h 5.6 km/h 91 % 0 mm
02:55 11.2 °C 9.8 °C 1014.8 hPa South 3.7 km/h 5.6 km/h 91 % 0 mm
03:00 11.2 °C 9.9 °C 1014.8 hPa South 3.9 km/h 7.4 km/h 92 % 0 mm
03:05 11.2 °C 9.9 °C 1014.8 hPa North 5.6 km/h 6.4 km/h 92 % 0 mm
03:10 11.2 °C 9.9 °C 1014.8 hPa North 7.1 km/h 7.4 km/h 92 % 0 mm
03:15 11.3 °C 10.1 °C 1014.8 hPa North 4 km/h 7.4 km/h 92 % 0 mm
03:20 11.4 °C 10.1 °C 1014.4 hPa South 5.3 km/h 7.4 km/h 92 % 0 mm
03:25 11.3 °C 10.1 °C 1014.4 hPa South 2.3 km/h 6.4 km/h 92 % 0 mm
03:30 11.3 °C 10.1 °C 1014.4 hPa South 5.1 km/h 7.4 km/h 92 % 0 mm
03:35 11.4 °C 10.1 °C 1014.4 hPa South 5.5 km/h 7.4 km/h 92 % 0 mm
03:40 11.3 °C 10.1 °C 1014.4 hPa South 5.8 km/h 7.4 km/h 92 % 0 mm
03:45 11.3 °C 10.1 °C 1014.4 hPa South 3.5 km/h 9.3 km/h 92 % 0 mm
03:50 11.4 °C 10.1 °C 1014.1 hPa South 4 km/h 5.6 km/h 92 % 0 mm
03:55 11.3 °C 10 °C 1014.1 hPa North 5.8 km/h 7.4 km/h 92 % 0 mm
04:00 11.3 °C 10 °C 1014.1 hPa South 6 km/h 8 km/h 92 % 0 mm
04:05 11.2 °C 9.9 °C 1014.1 hPa South 3.4 km/h 11.1 km/h 92 % 0 mm
04:10 11.2 °C 9.9 °C 1014.1 hPa South 6 km/h 9.3 km/h 92 % 0 mm
04:15 11.3 °C 10.2 °C 1014.1 hPa North 4.7 km/h 9.3 km/h 93 % 0 mm
04:21 11.3 °C 10.2 °C 1013.8 hPa South 5.1 km/h 9.3 km/h 93 % 0 mm
04:26 11.3 °C 10.2 °C 1013.8 hPa South 7.1 km/h 11.1 km/h 93 % 0 mm
04:31 11.3 °C 10.2 °C 1014.1 hPa South 8.2 km/h 8.2 km/h 93 % 0 mm
04:36 11.3 °C 10.2 °C 1014.1 hPa South 6.3 km/h 9.3 km/h 93 % 0 mm
04:41 11.3 °C 10.2 °C 1014.1 hPa South 5.3 km/h 8 km/h 93 % 0 mm
04:46 11.3 °C 10 °C 1014.1 hPa South 6.1 km/h 8 km/h 92 % 0 mm
04:51 11.3 °C 10 °C 1013.8 hPa North 5.3 km/h 7.4 km/h 92 % 0 mm
04:56 11.3 °C 10.2 °C 1013.8 hPa North 4.5 km/h 5.6 km/h 93 % 0 mm
05:01 11.2 °C 10.1 °C 1013.8 hPa North 5 km/h 5.6 km/h 93 % 0 mm
05:06 11.3 °C 10.2 °C 1013.8 hPa South 6.3 km/h 6.4 km/h 93 % 0 mm
05:11 11.3 °C 10.2 °C 1013.8 hPa South 6.3 km/h 7.4 km/h 93 % 0 mm
05:16 11.3 °C 10.2 °C 1013.8 hPa South 6.1 km/h 9.7 km/h 93 % 0 mm
05:20 11.3 °C 10.2 °C 1013.8 hPa North 4.7 km/h 9.3 km/h 93 % 0 mm
05:26 11.4 °C 10.3 °C 1013.8 hPa North 3.9 km/h 7.4 km/h 93 % 0 mm
05:31 11.4 °C 10.3 °C 1013.8 hPa North 3.4 km/h 5.6 km/h 93 % 0 mm
05:36 11.4 °C 10.3 °C 1013.8 hPa North 4 km/h 5.6 km/h 93 % 0 mm
05:41 11.3 °C 10.2 °C 1013.8 hPa North 2.9 km/h 7.4 km/h 93 % 0 mm
05:46 11.2 °C 9.9 °C 1013.8 hPa North 3.2 km/h 3.7 km/h 92 % 0 mm
05:51 11.1 °C 9.8 °C 1013.8 hPa North 5.1 km/h 7.4 km/h 92 % 0 mm
05:56 11 °C 9.7 °C 1013.8 hPa North 4.7 km/h 8 km/h 92 % 0 mm
06:01 10.8 °C 9.6 °C 1013.8 hPa North 1.8 km/h 5.6 km/h 92 % 0 mm
06:06 10.8 °C 9.7 °C 1013.8 hPa South 2.9 km/h 5.6 km/h 93 % 0 mm
06:11 10.8 °C 9.6 °C 1013.8 hPa North 2.1 km/h 3.7 km/h 92 % 0 mm
06:16 10.7 °C 9.4 °C 1013.8 hPa South 0.6 km/h 5.6 km/h 92 % 0 mm
06:21 10.6 °C 9.3 °C 1013.8 hPa Calm     92 % 0 mm
06:26 10.4 °C 9.2 °C 1013.8 hPa Calm   1.9 km/h 92 % 0 mm
06:31 10.2 °C 9 °C 1013.8 hPa South 1.4 km/h 1.9 km/h 92 % 0 mm
06:36 10.2 °C 9.1 °C 1013.8 hPa Calm     93 % 0 mm
06:41 10.1 °C 8.8 °C 1013.8 hPa Calm     92 % 0 mm
06:46 9.9 °C 8.7 °C 1014.1 hPa Calm     92 % 0 mm
06:51 9.8 °C 8.6 °C 1014.1 hPa Calm     92 % 0 mm
06:56 9.7 °C 8.4 °C 1014.1 hPa Calm   3.7 km/h 92 % 0 mm
07:01 9.5 °C 8.3 °C 1013.8 hPa Calm     92 % 0 mm
07:06 9.4 °C 8.2 °C 1014.1 hPa Calm     92 % 0 mm
07:11 9.2 °C 8 °C 1014.1 hPa Calm     92 % 0 mm
07:16 9.2 °C 8.2 °C 1014.1 hPa Calm     93 % 0 mm
07:21 9.1 °C 8.1 °C 1014.1 hPa Calm     93 % 0 mm
07:26 8.9 °C 7.7 °C 1014.1 hPa Calm     92 % 0 mm
07:31 8.9 °C 7.9 °C 1014.1 hPa Calm     93 % 0 mm
07:36 8.9 °C 7.8 °C 1014.1 hPa Calm     93 % 0 mm
07:41 8.8 °C 7.8 °C 1014.4 hPa Calm     93 % 0 mm
07:46 8.7 °C 7.4 °C 1014.1 hPa Calm     92 % 0 mm
07:51 8.5 °C 7.4 °C 1014.4 hPa Calm     93 % 0 mm
07:56 8.4 °C 7.3 °C 1014.4 hPa North 1.4 km/h 3.7 km/h 93 % 0 mm
08:18 8.9 °C 8.1 °C 1014.8 hPa Calm     95 % 0 mm
08:28 9.7 °C 8.9 °C 1014.8 hPa Calm     95 % 0 mm
08:33 9.9 °C 8.9 °C 1014.8 hPa Calm     94 % 0 mm
08:38 10.1 °C 9.1 °C 1014.8 hPa Calm     94 % 0 mm
08:43 10.2 °C 9.3 °C 1014.8 hPa Calm     94 % 0 mm
08:48 10.2 °C 9.2 °C 1014.8 hPa Calm     93 % 0 mm
08:53 10.3 °C 9.3 °C 1014.8 hPa South 2.7 km/h 5.6 km/h 93 % 0 mm
08:58 10.3 °C 9.2 °C 1014.8 hPa South 0.2 km/h 3.7 km/h 93 % 0 mm
09:03 10.7 °C 9.7 °C 1014.8 hPa South 2.3 km/h 3.7 km/h 94 % 0 mm
09:08 11.1 °C 10.1 °C 1014.8 hPa Calm     94 % 0 mm
09:13 11.4 °C 10.5 °C 1015.1 hPa Calm   1.9 km/h 94 % 0 mm
09:18 11.8 °C 10.7 °C 1015.1 hPa North 1.8 km/h 3.7 km/h 93 % 0 mm
09:23 12.2 °C 10.9 °C 1014.8 hPa South 3.4 km/h 5.6 km/h 92 % 0 mm
09:28 12.4 °C 11.1 °C 1014.8 hPa South 1.1 km/h 3.7 km/h 92 % 0 mm
09:33 12.7 °C 11.4 °C 1014.8 hPa Calm   3.7 km/h 92 % 0 mm
09:38 13.2 °C 11.7 °C 1014.8 hPa South 1.6 km/h 1.9 km/h 91 % 0 mm
09:43 13.6 °C 11.9 °C 1014.8 hPa Calm     90 % 0 mm
09:48 14 °C 12.1 °C 1014.8 hPa South 0.3 km/h 1.9 km/h 88 % 0 mm
09:53 14.2 °C 11.9 °C 1014.8 hPa South 1.4 km/h 1.9 km/h 86 % 0 mm
09:58 14.6 °C 12.1 °C 1014.8 hPa South 1.4 km/h 3.7 km/h 85 % 0 mm
10:03 14.9 °C 12.1 °C 1014.8 hPa North 1.6 km/h 3.7 km/h 83 % 0 mm
10:08 15.3 °C 12.1 °C 1014.8 hPa South 3.1 km/h 5.6 km/h 81 % 0 mm
10:13 15.6 °C 11.9 °C 1014.8 hPa North 1.8 km/h 3.7 km/h 79 % 0 mm
10:18 15.8 °C 11.8 °C 1014.8 hPa Calm   3.7 km/h 77 % 0 mm
10:23 15.8 °C 11.8 °C 1014.8 hPa Calm     77 % 0 mm
10:28 16 °C 11.8 °C 1014.8 hPa Calm     76 % 0 mm
10:33 16.3 °C 11.6 °C 1014.4 hPa South 0.3 km/h 1.9 km/h 74 % 0 mm
10:38 16.4 °C 11.3 °C 1014.4 hPa South 2.6 km/h 3.7 km/h 72 % 0 mm
10:43 16.6 °C 11.7 °C 1014.4 hPa Calm   3.7 km/h 73 % 0 mm
10:48 16.9 °C 11.7 °C 1014.4 hPa North 2.6 km/h 5.6 km/h 71 % 0 mm
10:53 17.2 °C 11.9 °C 1014.4 hPa South 1.3 km/h 3.7 km/h 71 % 0 mm
10:59 17.8 °C 12 °C 1014.1 hPa South 2.3 km/h 5.6 km/h 69 % 0 mm
11:04 18.3 °C 11.6 °C 1014.4 hPa South 4.3 km/h 5.6 km/h 65 % 0 mm
11:09 18.7 °C 11.6 °C 1014.4 hPa South 4.5 km/h 5.6 km/h 63 % 0 mm
11:14 19 °C 11.1 °C 1014.1 hPa South 5.6 km/h 6.4 km/h 60 % 0 mm
11:19 19 °C 10.6 °C 1014.1 hPa South 0.3 km/h 5.6 km/h 58 % 0 mm
11:24 19.1 °C 10.7 °C 1014.1 hPa South 2.4 km/h 2.4 km/h 58 % 0 mm
11:29 19.6 °C 10.8 °C 1014.1 hPa South 3.5 km/h 5.6 km/h 57 % 0 mm
11:34 19.7 °C 10.4 °C 1014.1 hPa South 2.9 km/h 5.6 km/h 55 % 0 mm
11:39 19.7 °C 10.2 °C 1013.8 hPa South 5.6 km/h 7.4 km/h 54 % 0 mm
11:44 19.9 °C 10 °C 1013.8 hPa South 5.1 km/h 9.3 km/h 53 % 0 mm
11:49 20.2 °C 10.3 °C 1013.8 hPa North 7.2 km/h 11.1 km/h 53 % 0 mm
11:54 20.1 °C 9.9 °C 1013.8 hPa West 7.9 km/h 9.3 km/h 52 % 0 mm
11:59 20.3 °C 10.4 °C 1013.4 hPa NNW 3.9 km/h 13 km/h 53 % 0 mm
12:04 20.9 °C 10.1 °C 1013.4 hPa NNW 10.1 km/h 16.7 km/h 50 % 0 mm
12:09 21 °C 9.6 °C 1013.4 hPa NW 7.1 km/h 9.3 km/h 48 % 0 mm
12:14 21.2 °C 9.7 °C 1013.4 hPa North 7.9 km/h 13 km/h 48 % 0 mm
12:19 20.8 °C 9.4 °C 1013.8 hPa NW 10.5 km/h 13 km/h 48 % 0 mm
12:24 20.8 °C 9.7 °C 1013.4 hPa NNW 9.2 km/h 13 km/h 49 % 0 mm
12:29 21.1 °C 9.9 °C 1013.4 hPa NW 7.1 km/h 11.1 km/h 49 % 0 mm
12:34 21.3 °C 9.9 °C 1013.4 hPa North 8 km/h 14.8 km/h 48 % 0 mm
12:39 21.8 °C 9.7 °C 1013.1 hPa NNW 3.7 km/h 5.6 km/h 46 % 0 mm
12:44 22.1 °C 9.6 °C 1013.1 hPa North 7.6 km/h 9.7 km/h 45 % 0 mm
12:49 22 °C 9.5 °C 1012.8 hPa NNW 6.6 km/h 9.3 km/h 45 % 0 mm
12:54 21.9 °C 9.4 °C 1012.8 hPa NW 10.5 km/h 14.8 km/h 45 % 0 mm
12:59 21.9 °C 9.4 °C 1012.8 hPa NNW 8 km/h 14.8 km/h 45 % 0 mm
13:04 22.2 °C 9.4 °C 1012.8 hPa NW 11.4 km/h 19.3 km/h 44 % 0 mm
13:09 22.5 °C 8.9 °C 1012.8 hPa NNW 16.6 km/h 25.9 km/h 42 % 0 mm
13:14 22.9 °C 8.9 °C 1012.8 hPa NNE 3.7 km/h 7.4 km/h 41 % 0 mm
13:19 22.8 °C 8.4 °C 1012.8 hPa North 12.4 km/h 18.5 km/h 40 % 0 mm
13:24 22.8 °C 8.4 °C 1012.8 hPa NNW 13.5 km/h 20.4 km/h 40 % 0 mm
13:29 22.8 °C 8.2 °C 1012.4 hPa NW 4.8 km/h 11.1 km/h 39 % 0 mm
13:34 23.3 °C 8.2 °C 1012.4 hPa NNW 7.9 km/h 17.7 km/h 38 % 0 mm
13:39 23.3 °C 8.2 °C 1012.4 hPa North 7.1 km/h 14.8 km/h 38 % 0 mm
13:44 23.4 °C 7.9 °C 1012.4 hPa NNW 11.3 km/h 18.5 km/h 37 % 0 mm
13:49 23.3 °C 8.2 °C 1012.4 hPa North 18 km/h 20.4 km/h 38 % 0 mm
13:54 23.5 °C 7.9 °C 1012.4 hPa NNE 13.8 km/h 22.2 km/h 37 % 0 mm
13:59 23.6 °C 7.6 °C 1012.4 hPa NW 11.3 km/h 24.1 km/h 36 % 0 mm
14:04 23.4 °C 7.1 °C 1012.4 hPa NW 11.7 km/h 16.7 km/h 35 % 0 mm
14:09 23.1 °C 7.2 °C 1012.1 hPa North 11.1 km/h 14.8 km/h 36 % 0 mm
14:14 23.2 °C 6.8 °C 1012.1 hPa North 12.6 km/h 18.5 km/h 35 % 0 mm
14:19 23.9 °C 7.6 °C 1012.1 hPa NNE 9.8 km/h 14.8 km/h 35 % 0 mm
14:24 24.1 °C 6.3 °C 1011.7 hPa WNW 12.2 km/h 16.7 km/h 32 % 0 mm
14:29 24.1 °C 7.2 °C 1011.7 hPa NNW 9.7 km/h 13 km/h 34 % 0 mm
14:34 24.2 °C 7.3 °C 1011.7 hPa North 7.6 km/h 11.3 km/h 34 % 0 mm
14:39 24.1 °C 6.8 °C 1011.7 hPa NW 10.3 km/h 14.8 km/h 33 % 0 mm
14:44 23.7 °C 6.4 °C 1011.7 hPa North 14 km/h 18.5 km/h 33 % 0 mm
14:49 23.7 °C 6.4 °C 1011.7 hPa NNW 10.1 km/h 18.5 km/h 33 % 0 mm
14:54 24.1 °C 6.8 °C 1011.7 hPa North 5.6 km/h 13 km/h 33 % 0 mm
14:59 24.2 °C 6.9 °C 1011.7 hPa NW 16.3 km/h 27.8 km/h 33 % 0 mm
15:04 23.7 °C 6.4 °C 1011.7 hPa North 12.1 km/h 18.5 km/h 33 % 0 mm
15:09 23.6 °C 6.4 °C 1011.7 hPa North 9.2 km/h 16.7 km/h 33 % 0 mm
15:14 23.6 °C 6.4 °C 1011.4 hPa NNW 11.3 km/h 20.4 km/h 33 % 0 mm
15:19 23.4 °C 6.2 °C 1011.4 hPa NNW 10.8 km/h 18.5 km/h 33 % 0 mm
15:24 23.6 °C 6.8 °C 1011.4 hPa North 9.8 km/h 22.2 km/h 34 % 0 mm
15:29 23.7 °C 6.9 °C 1011.1 hPa North 13.4 km/h 20.4 km/h 34 % 0 mm
15:34 23.4 °C 6.7 °C 1011.1 hPa NNW 11.6 km/h 18.5 km/h 34 % 0 mm
15:39 23.4 °C 6.7 °C 1011.1 hPa NNW 7.9 km/h 9.3 km/h 34 % 0 mm
15:44 23.3 °C 6.1 °C 1011.1 hPa WNW 12.2 km/h 18.5 km/h 33 % 0 mm
15:49 23.2 °C 6 °C 1011.1 hPa North 10.8 km/h 18.5 km/h 33 % 0 mm
15:54 23.1 °C 5.9 °C 1011.1 hPa North 9.5 km/h 16.7 km/h 33 % 0 mm
15:59 23.1 °C 6.4 °C 1011.1 hPa NNW 5.6 km/h 9.3 km/h 34 % 0 mm
16:04 23.1 °C 5.9 °C 1011.1 hPa NW 11.3 km/h 14.8 km/h 33 % 0 mm
16:09 23.1 °C 5.9 °C 1011.1 hPa NW 8.4 km/h 11.1 km/h 33 % 0 mm
16:14 23.2 °C 6 °C 1011.1 hPa North 10.5 km/h 19.3 km/h 33 % 0 mm
16:19 23.2 °C 5.6 °C 1010.7 hPa North 13.4 km/h 20.4 km/h 32 % 0 mm
16:24 23.3 °C 6.1 °C 1010.7 hPa NW 4.2 km/h 6.4 km/h 33 % 0 mm
16:29 23.4 °C 5.7 °C 1010.7 hPa NW 8 km/h 18.5 km/h 32 % 0 mm
16:34 23.4 °C 5.7 °C 1010.7 hPa NNW 8.7 km/h 14.8 km/h 32 % 0 mm
16:39 23.6 °C 5.9 °C 1010.7 hPa NW 12.4 km/h 20.9 km/h 32 % 0 mm
16:44 23.7 °C 5.1 °C 1010.7 hPa NW 16.9 km/h 18.5 km/h 30 % 0 mm
16:49 23.6 °C 5.4 °C 1010.7 hPa North 11.4 km/h 18.5 km/h 31 % 0 mm
16:54 23.6 °C 5.9 °C 1010.7 hPa North 10.6 km/h 11.3 km/h 32 % 0 mm
16:59 23.7 °C 5.6 °C 1010.7 hPa North 10 km/h 18.5 km/h 31 % 0 mm
17:04 23.7 °C 5.6 °C 1010.7 hPa NW 8.2 km/h 16.1 km/h 31 % 0 mm
17:09 23.9 °C 5.7 °C 1010.7 hPa NW 12.4 km/h 18.5 km/h 31 % 0 mm
17:14 23.8 °C 5.6 °C 1010.7 hPa NNW 11.9 km/h 13 km/h 31 % 0 mm
17:19 23.7 °C 5.6 °C 1010.7 hPa North 13.7 km/h 16.7 km/h 31 % 0 mm
17:24 23.6 °C 4.9 °C 1011.1 hPa NW 13.5 km/h 24.1 km/h 30 % 0 mm
17:29 23.4 °C 4.9 °C 1010.7 hPa North 13.2 km/h 17.7 km/h 30 % 0 mm
17:34 23.4 °C 4.9 °C 1010.7 hPa North 9.7 km/h 18.5 km/h 30 % 0 mm
17:39 23.4 °C 4.9 °C 1011.1 hPa NW 13.8 km/h 18.5 km/h 30 % 0 mm
17:44 23.4 °C 4.8 °C 1011.1 hPa NNW 7.1 km/h 13 km/h 30 % 0 mm
17:47 23.4 °C 4.8 °C 1011.1 hPa NW 10 km/h 18.5 km/h 30 % 0 mm
17:52 23.3 °C 4.8 °C 1010.7 hPa North 10.3 km/h 14.8 km/h 30 % 0 mm
17:57 23.3 °C 4.3 °C 1010.7 hPa NNW 9.5 km/h 14.8 km/h 29 % 0 mm
18:02 23.3 °C 4.3 °C 1010.7 hPa NNW 10.1 km/h 14.8 km/h 29 % 0 mm
18:07 23.3 °C 4.2 °C 1010.7 hPa NNW 12.4 km/h 18.5 km/h 29 % 0 mm
18:12 23.3 °C 4.2 °C 1011.1 hPa NNW 8.4 km/h 13 km/h 29 % 0 mm
18:17 23.2 °C 4.7 °C 1011.1 hPa North 5 km/h 9.3 km/h 30 % 0 mm
18:22 23.2 °C 4.7 °C 1010.7 hPa NNW 7.1 km/h 13 km/h 30 % 0 mm
18:27 23.2 °C 4.6 °C 1010.7 hPa NNW 10.6 km/h 14.8 km/h 30 % 0 mm
18:32 23.2 °C 4.6 °C 1011.1 hPa NNW 6.9 km/h 11.1 km/h 30 % 0 mm
18:37 23.1 °C 4.6 °C 1010.7 hPa North 6.1 km/h 9.3 km/h 30 % 0 mm
18:42 23.1 °C 5 °C 1010.7 hPa North 5.1 km/h 11.1 km/h 31 % 0 mm
18:47 23.1 °C 5 °C 1010.7 hPa NW 7.1 km/h 11.3 km/h 31 % 0 mm
18:52 23.1 °C 5 °C 1010.7 hPa North 2.7 km/h 6.4 km/h 31 % 0 mm
18:57 23.1 °C 5 °C 1010.7 hPa NNW 5.6 km/h 11.1 km/h 31 % 0 mm
19:02 23 °C 4.9 °C 1010.7 hPa NNW 2.4 km/h 5.6 km/h 31 % 0 mm
19:07 22.9 °C 4.9 °C 1010.7 hPa NNW 3.9 km/h 5.6 km/h 31 % 0 mm
19:12 22.9 °C 4.8 °C 1010.7 hPa NNW 2.9 km/h 5.6 km/h 31 % 0 mm
19:17 22.8 °C 4.8 °C 1011.1 hPa NNW 2.4 km/h 5.6 km/h 31 % 0 mm
19:22 22.8 °C 5.2 °C 1010.7 hPa NNW 3.7 km/h 5.6 km/h 32 % 0 mm
19:27 22.7 °C 5.2 °C 1010.7 hPa North 3.5 km/h 5.6 km/h 32 % 0 mm
19:32 22.7 °C 5.1 °C 1011.1 hPa North 5.6 km/h 7.4 km/h 32 % 0 mm
19:37 22.6 °C 5.1 °C 1011.1 hPa North 5 km/h 5.6 km/h 32 % 0 mm
19:42 22.6 °C 5.1 °C 1011.1 hPa NNW 3.9 km/h 5.6 km/h 32 % 0 mm
19:47 22.5 °C 5 °C 1011.1 hPa NNW 3.4 km/h 5.6 km/h 32 % 0 mm
19:52 22.4 °C 4.9 °C 1011.1 hPa North 2.6 km/h 5.6 km/h 32 % 0 mm
19:57 22.4 °C 4.9 °C 1011.1 hPa NNW 1 km/h 1.9 km/h 32 % 0 mm
20:02 22.3 °C 5.3 °C 1010.7 hPa Calm   1.9 km/h 33 % 0 mm
20:07 22.2 °C 5.2 °C 1010.7 hPa Calm   1.9 km/h 33 % 0 mm
20:12 22.1 °C 5.1 °C 1010.7 hPa NNW 1.9 km/h 3.7 km/h 33 % 0 mm
20:17 22 °C 5.4 °C 1010.7 hPa Calm     34 % 0 mm
20:22 21.9 °C 5.3 °C 1010.4 hPa NNW 1.3 km/h 3.2 km/h 34 % 0 mm
20:27 21.7 °C 5.2 °C 1011.1 hPa NNW 0.2 km/h 1.9 km/h 34 % 0 mm
20:32 21.5 °C 5.4 °C 1011.1 hPa Calm     35 % 0 mm
20:37 21.4 °C 5.3 °C 1010.7 hPa Calm     35 % 0 mm
20:42 21.3 °C 5.2 °C 1011.1 hPa NNW 0.3 km/h 1.6 km/h 35 % 0 mm
20:47 21.1 °C 5.4 °C 1010.7 hPa NNW 2.9 km/h 3.7 km/h 36 % 0 mm
20:52 20.9 °C 5.3 °C 1011.1 hPa North 1.4 km/h 1.9 km/h 36 % 0 mm
20:57 20.9 °C 5.3 °C 1011.1 hPa NNW 2.3 km/h 3.7 km/h 36 % 0 mm
21:02 20.8 °C 5.2 °C 1011.1 hPa NNW 0.6 km/h 1.9 km/h 36 % 0 mm
21:07 20.8 °C 5.2 °C 1011.1 hPa NNW 0.2 km/h 1.9 km/h 36 % 0 mm
21:12 20.6 °C 5.4 °C 1011.1 hPa NNW 0.2 km/h 3.7 km/h 37 % 0 mm
21:17 20.6 °C 5.4 °C 1011.4 hPa Calm     37 % 0 mm
21:22 20.6 °C 5.4 °C 1011.4 hPa Calm     37 % 0 mm
21:27 20.6 °C 5.3 °C 1011.4 hPa North 1 km/h 3.7 km/h 37 % 0 mm
21:32 20.5 °C 5.3 °C 1011.4 hPa North 0.6 km/h 1.9 km/h 37 % 0 mm
21:37 20.5 °C 5.7 °C 1011.4 hPa NNW 2.3 km/h 5.6 km/h 38 % 0 mm
21:42 20.4 °C 5.6 °C 1011.4 hPa NNW 3.2 km/h 5.6 km/h 38 % 0 mm
21:47 20.4 °C 5.6 °C 1011.4 hPa NW 4 km/h 5.6 km/h 38 % 0 mm
21:52 20.4 °C 5.6 °C 1011.4 hPa NNW 4.8 km/h 5.6 km/h 38 % 0 mm
21:57 20.4 °C 5.6 °C 1011.4 hPa NNW 3.5 km/h 5.6 km/h 38 % 0 mm
22:02 20.4 °C 5.3 °C 1011.7 hPa NNW 0.6 km/h 5.6 km/h 37 % 0 mm
22:07 20.5 °C 5.3 °C 1011.4 hPa NNW 4.3 km/h 5.6 km/h 37 % 0 mm
22:12 20.6 °C 5.3 °C 1011.4 hPa NNW 3.2 km/h 5.6 km/h 37 % 0 mm
22:13 20.6 °C 5.4 °C 1011.4 hPa NNW 3.1 km/h 5.6 km/h 37 % 0 mm
22:18 20.7 °C 5.4 °C 1011.4 hPa NNW 3.2 km/h 5.6 km/h 37 % 0 mm
22:23 20.7 °C 5.4 °C 1011.4 hPa NNW 3.7 km/h 5.6 km/h 37 % 0 mm
22:28 20.7 °C 5.4 °C 1011.4 hPa NNW 4.5 km/h 5.6 km/h 37 % 0 mm
22:33 20.7 °C 5.5 °C 1011.4 hPa NNW 2.6 km/h 5.6 km/h 37 % 0 mm
22:38 20.7 °C 5.5 °C 1011.4 hPa NNW 1.3 km/h 3.7 km/h 37 % 0 mm
22:43 20.7 °C 5.5 °C 1011.1 hPa North 2.1 km/h 6.4 km/h 37 % 0 mm
22:48 20.7 °C 5.4 °C 1011.1 hPa NNW 3.5 km/h 5.6 km/h 37 % 0 mm
22:53 20.6 °C 5.8 °C 1011.1 hPa NNW 0.2 km/h 1.9 km/h 38 % 0 mm
22:58 20.6 °C 5.7 °C 1011.1 hPa NNW 0.6 km/h 3.7 km/h 38 % 0 mm
23:03 20.4 °C 5.6 °C 1011.1 hPa Calm     38 % 0 mm
23:08 20.4 °C 5.9 °C 1010.7 hPa Calm     39 % 0 mm
23:13 20.3 °C 5.9 °C 1010.7 hPa NNW 0.2 km/h 1.6 km/h 39 % 0 mm
23:18 20.2 °C 5.8 °C 1010.7 hPa North 0.2 km/h 1.9 km/h 39 % 0 mm
23:23 20.2 °C 5.8 °C 1010.7 hPa NNW 0.2 km/h 3.7 km/h 39 % 0 mm
23:28 20.2 °C 5.8 °C 1010.7 hPa North 1.8 km/h 5.6 km/h 39 % 0 mm
23:33 20.3 °C 5.9 °C 1010.7 hPa Calm     39 % 0 mm
23:38 20.3 °C 5.9 °C 1010.7 hPa Calm     39 % 0 mm
23:43 20.4 °C 5.6 °C 1010.7 hPa North 3.1 km/h 5.6 km/h 38 % 0 mm
23:48 20.5 °C 5.7 °C 1010.7 hPa North 0.3 km/h 3.7 km/h 38 % 0 mm
23:53 20.6 °C 5.7 °C 1010.7 hPa NNW 4.8 km/h 7.4 km/h 38 % 0 mm
23:58 20.6 °C 5.4 °C 1010.7 hPa NNW 3.4 km/h 5.6 km/h 37 % 0 mm
Ararat Weather
Compliments of Weather Underground - 2.25 mb
Click here to send mail.


ABOUT

Live weather data from Ararat, Victoria, Australia, 3377
Data uploaded from Cumulus every 5 minutes to Weather Underground.
This site then downloads the raw data for formatting and display.
Metric and imperial data can be displayed. Graphs and historical data available.
Includes Sun and Moon times and rain image live from BOM.

Check out Ararat Weather on Facebook, Twitter and Google +

Help support ongoing costs by checking out the ads





Follow @AraratWeather